Cherrycreek, Mississippi
Current Conditions -  °F | °C
As of 9:53 PM on Saturday 22 Nov 2014 (Local Time) from KTUP Reporting Station
Few Clouds Few Clouds  
Wind Chill: 58°   Ceiling: Unl
Heat Index: 58°   Visibility: 10mi
Dew Point: 49°   Wind: 8mph
Humidity: 72%   Direction: 160°SSE
Pressure: 30.05"   Gusts: NA
Location:  34.4333°N, 88.8629°W
Report Text: KTUP 230353Z 16007KT 10SM FEW050 14/09 A3005 RMK AO2 SLP173 T01440094 $
Loading
Personal Weather Stations






























Interactive Weather Map New forecast layout! Learn more

10-Day Weather Forecast

Advertisements
Track Severe Weather on mobile